sensor_id;sensor_type;location;lat;lon;timestamp;pressure;altitude;pressure_sealevel;temperature;humidity
80186;BME280;69904;52.122;5.422;2023-06-04T00:00:08;102276.47;;;16.54;47.71
80186;BME280;69904;52.122;5.422;2023-06-04T00:02:35;102281.47;;;16.50;47.84
80186;BME280;69904;52.122;5.422;2023-06-04T00:05:02;102276.00;;;16.43;47.96
80186;BME280;69904;52.122;5.422;2023-06-04T00:07:28;102268.63;;;16.37;47.90
80186;BME280;69904;52.122;5.422;2023-06-04T00:09:56;102275.94;;;16.37;48.23
80186;BME280;69904;52.122;5.422;2023-06-04T00:12:22;102275.50;;;16.33;48.54
80186;BME280;69904;52.122;5.422;2023-06-04T00:14:49;102281.34;;;16.30;48.39
80186;BME280;69904;52.122;5.422;2023-06-04T00:17:15;102271.06;;;16.26;48.14
80186;BME280;69904;52.122;5.422;2023-06-04T00:19:42;102276.44;;;16.13;48.42
80186;BME280;69904;52.122;5.422;2023-06-04T00:22:08;102270.13;;;16.12;48.80
80186;BME280;69904;52.122;5.422;2023-06-04T00:24:37;102269.91;;;16.07;48.93
80186;BME280;69904;52.122;5.422;2023-06-04T00:27:05;102275.72;;;16.04;48.94
80186;BME280;69904;52.122;5.422;2023-06-04T00:29:31;102274.03;;;16.03;49.03
80186;BME280;69904;52.122;5.422;2023-06-04T00:31:58;102269.00;;;16.00;49.16
80186;BME280;69904;52.122;5.422;2023-06-04T00:34:25;102268.34;;;15.98;48.88
80186;BME280;69904;52.122;5.422;2023-06-04T00:36:51;102262.88;;;15.91;49.22
80186;BME280;69904;52.122;5.422;2023-06-04T00:39:17;102273.09;;;15.89;49.36
80186;BME280;69904;52.122;5.422;2023-06-04T00:41:44;102264.50;;;15.86;49.31
80186;BME280;69904;52.122;5.422;2023-06-04T00:44:10;102265.72;;;15.83;49.59
80186;BME280;69904;52.122;5.422;2023-06-04T00:46:37;102267.16;;;15.79;49.33
80186;BME280;69904;52.122;5.422;2023-06-04T00:49:05;102265.88;;;15.75;49.58
80186;BME280;69904;52.122;5.422;2023-06-04T00:51:32;102272.75;;;15.71;49.31
80186;BME280;69904;52.122;5.422;2023-06-04T00:53:59;102269.75;;;15.66;49.32
80186;BME280;69904;52.122;5.422;2023-06-04T00:56:25;102269.75;;;15.66;49.21
80186;BME280;69904;52.122;5.422;2023-06-04T00:58:52;102278.34;;;15.63;49.44
80186;BME280;69904;52.122;5.422;2023-06-04T01:03:55;102272.56;;;15.51;49.75
80186;BME280;69904;52.122;5.422;2023-06-04T01:06:37;102271.53;;;15.52;49.58
80186;BME280;69904;52.122;5.422;2023-06-04T01:09:04;102278.56;;;15.47;49.69
80186;BME280;69904;52.122;5.422;2023-06-04T01:11:36;102270.16;;;15.42;50.03
80186;BME280;69904;52.122;5.422;2023-06-04T01:14:05;102275.34;;;15.37;49.48
80186;BME280;69904;52.122;5.422;2023-06-04T01:16:49;102264.56;;;15.29;49.92
80186;BME280;69904;52.122;5.422;2023-06-04T01:27:56;102269.47;;;15.18;50.04
80186;BME280;69904;52.122;5.422;2023-06-04T01:30:29;102274.28;;;15.16;49.81
80186;BME280;69904;52.122;5.422;2023-06-04T01:32:57;102276.94;;;15.10;50.11
80186;BME280;69904;52.122;5.422;2023-06-04T01:35:25;102277.13;;;15.08;50.15
80186;BME280;69904;52.122;5.422;2023-06-04T01:37:55;102276.66;;;15.05;50.55
80186;BME280;69904;52.122;5.422;2023-06-04T01:40:22;102275.38;;;15.01;50.73
80186;BME280;69904;52.122;5.422;2023-06-04T01:42:49;102283.91;;;14.98;50.57
80186;BME280;69904;52.122;5.422;2023-06-04T01:45:16;102276.97;;;14.95;50.48
80186;BME280;69904;52.122;5.422;2023-06-04T01:47:42;102275.66;;;14.91;50.70
80186;BME280;69904;52.122;5.422;2023-06-04T01:50:09;102272.88;;;14.85;51.25
80186;BME280;69904;52.122;5.422;2023-06-04T01:52:36;102269.31;;;14.84;50.89
80186;BME280;69904;52.122;5.422;2023-06-04T01:55:08;102267.53;;;14.77;51.41
80186;BME280;69904;52.122;5.422;2023-06-04T01:57:35;102272.03;;;14.69;51.62
80186;BME280;69904;52.122;5.422;2023-06-04T02:00:03;102267.00;;;14.66;52.03
80186;BME280;69904;52.122;5.422;2023-06-04T02:02:30;102273.00;;;14.62;52.10
80186;BME280;69904;52.122;5.422;2023-06-04T02:04:57;102276.09;;;14.59;52.30
80186;BME280;69904;52.122;5.422;2023-06-04T02:07:23;102272.06;;;14.55;52.16
80186;BME280;69904;52.122;5.422;2023-06-04T02:09:50;102278.06;;;14.50;52.45
80186;BME280;69904;52.122;5.422;2023-06-04T02:12:17;102270.09;;;14.49;52.26
80186;BME280;69904;52.122;5.422;2023-06-04T02:14:43;102276.94;;;14.45;52.79
80186;BME280;69904;52.122;5.422;2023-06-04T02:17:11;102272.09;;;14.40;52.97
80186;BME280;69904;52.122;5.422;2023-06-04T02:19:43;102276.19;;;14.36;53.21
80186;BME280;69904;52.122;5.422;2023-06-04T02:22:17;102279.25;;;14.33;52.73
80186;BME280;69904;52.122;5.422;2023-06-04T02:24:44;102272.69;;;14.27;52.89
80186;BME280;69904;52.122;5.422;2023-06-04T02:27:12;102275.78;;;14.24;53.32
80186;BME280;69904;52.122;5.422;2023-06-04T02:29:39;102279.25;;;14.18;53.71
80186;BME280;69904;52.122;5.422;2023-06-04T02:32:07;102273.88;;;14.10;53.98
80186;BME280;69904;52.122;5.422;2023-06-04T02:34:33;102276.81;;;14.09;53.76
80186;BME280;69904;52.122;5.422;2023-06-04T02:37:00;102273.59;;;14.05;53.68
80186;BME280;69904;52.122;5.422;2023-06-04T02:39:27;102271.28;;;14.02;54.25
80186;BME280;69904;52.122;5.422;2023-06-04T02:41:53;102275.41;;;13.98;53.96
80186;BME280;69904;52.122;5.422;2023-06-04T02:44:20;102275.75;;;13.95;54.04
80186;BME280;69904;52.122;5.422;2023-06-04T02:46:47;102278.66;;;13.94;54.00
80186;BME280;69904;52.122;5.422;2023-06-04T02:49:13;102268.16;;;13.90;54.77
80186;BME280;69904;52.122;5.422;2023-06-04T02:51:40;102272.28;;;13.86;54.43
80186;BME280;69904;52.122;5.422;2023-06-04T02:54:07;102272.47;;;13.85;55.06
80186;BME280;69904;52.122;5.422;2023-06-04T02:56:34;102267.59;;;13.80;54.93
80186;BME280;69904;52.122;5.422;2023-06-04T02:59:01;102264.41;;;13.77;55.13
80186;BME280;69904;52.122;5.422;2023-06-04T03:01:28;102271.88;;;13.75;54.58
80186;BME280;69904;52.122;5.422;2023-06-04T03:03:55;102268.88;;;13.70;54.77
80186;BME280;69904;52.122;5.422;2023-06-04T03:06:23;102280.09;;;13.67;55.13
80186;BME280;69904;52.122;5.422;2023-06-04T03:08:51;102274.00;;;13.65;55.13
80186;BME280;69904;52.122;5.422;2023-06-04T03:11:18;102267.91;;;13.63;55.42
80186;BME280;69904;52.122;5.422;2023-06-04T03:13:48;102264.56;;;13.61;55.06
80186;BME280;69904;52.122;5.422;2023-06-04T03:16:15;102271.38;;;13.57;55.31
80186;BME280;69904;52.122;5.422;2023-06-04T03:18:42;102265.94;;;13.57;55.19
80186;BME280;69904;52.122;5.422;2023-06-04T03:21:09;102270.03;;;13.53;55.52
80186;BME280;69904;52.122;5.422;2023-06-04T03:23:38;102260.56;;;13.48;55.64
80186;BME280;69904;52.122;5.422;2023-06-04T03:26:05;102274.50;;;13.45;55.87
80186;BME280;69904;52.122;5.422;2023-06-04T03:28:32;102265.88;;;13.42;55.24
80186;BME280;69904;52.122;5.422;2023-06-04T03:30:59;102274.84;;;13.42;55.55
80186;BME280;69904;52.122;5.422;2023-06-04T03:33:26;102270.28;;;13.43;55.98
80186;BME280;69904;52.122;5.422;2023-06-04T03:35:52;102283.16;;;13.41;55.87
80186;BME280;69904;52.122;5.422;2023-06-04T03:38:19;102280.16;;;13.36;55.91
80186;BME280;69904;52.122;5.422;2023-06-04T03:40:46;102274.09;;;13.34;55.95
80186;BME280;69904;52.122;5.422;2023-06-04T03:43:12;102282.22;;;13.34;56.06
80186;BME280;69904;52.122;5.422;2023-06-04T03:45:39;102276.28;;;13.30;56.36
80186;BME280;69904;52.122;5.422;2023-06-04T03:48:05;102276.50;;;13.29;55.66
80186;BME280;69904;52.122;5.422;2023-06-04T03:50:32;102273.78;;;13.29;56.17
80186;BME280;69904;52.122;5.422;2023-06-04T03:52:59;102272.78;;;13.30;56.23
80186;BME280;69904;52.122;5.422;2023-06-04T03:55:26;102285.47;;;13.29;56.34
80186;BME280;69904;52.122;5.422;2023-06-04T03:57:53;102277.91;;;13.25;56.69
80186;BME280;69904;52.122;5.422;2023-06-04T04:00:19;102277.91;;;13.25;56.80
80186;BME280;69904;52.122;5.422;2023-06-04T04:02:46;102267.84;;;13.25;56.87
80186;BME280;69904;52.122;5.422;2023-06-04T04:05:13;102275.53;;;13.22;56.73
80186;BME280;69904;52.122;5.422;2023-06-04T04:07:42;102275.34;;;13.23;57.10
80186;BME280;69904;52.122;5.422;2023-06-04T04:10:09;102277.03;;;13.24;57.18
80186;BME280;69904;52.122;5.422;2023-06-04T04:12:36;102273.50;;;13.24;57.29
80186;BME280;69904;52.122;5.422;2023-06-04T04:15:03;102275.34;;;13.23;57.08
80186;BME280;69904;52.122;5.422;2023-06-04T04:17:30;102272.63;;;13.23;57.00
80186;BME280;69904;52.122;5.422;2023-06-04T04:19:57;102278.91;;;13.24;57.07
80186;BME280;69904;52.122;5.422;2023-06-04T04:22:24;102274.34;;;13.24;57.40
80186;BME280;69904;52.122;5.422;2023-06-04T04:24:50;102286.19;;;13.23;57.29
80186;BME280;69904;52.122;5.422;2023-06-04T04:27:17;102278.41;;;13.20;57.31
80186;BME280;69904;52.122;5.422;2023-06-04T04:29:43;102279.94;;;13.23;58.02
80186;BME280;69904;52.122;5.422;2023-06-04T04:32:10;102278.41;;;13.20;57.61
80186;BME280;69904;52.122;5.422;2023-06-04T04:34:38;102280.09;;;13.21;58.32
80186;BME280;69904;52.122;5.422;2023-06-04T04:37:09;102275.69;;;13.20;57.97
80186;BME280;69904;52.122;5.422;2023-06-04T04:39:36;102284.81;;;13.27;58.14
80186;BME280;69904;52.122;5.422;2023-06-04T04:42:03;102279.75;;;13.24;58.50
80186;BME280;69904;52.122;5.422;2023-06-04T04:44:29;102282.47;;;13.24;58.71
80186;BME280;69904;52.122;5.422;2023-06-04T04:46:56;102278.22;;;13.22;58.73
80186;BME280;69904;52.122;5.422;2023-06-04T04:49:23;102279.38;;;13.27;58.79
80186;BME280;69904;52.122;5.422;2023-06-04T04:51:49;102282.78;;;13.29;58.93
80186;BME280;69904;52.122;5.422;2023-06-04T04:54:15;102283.78;;;13.28;58.89
80186;BME280;69904;52.122;5.422;2023-06-04T04:56:42;102280.41;;;13.26;58.97
80186;BME280;69904;52.122;5.422;2023-06-04T04:59:08;102284.63;;;13.29;59.18
80186;BME280;69904;52.122;5.422;2023-06-04T05:01:35;102283.25;;;13.33;59.27
80186;BME280;69904;52.122;5.422;2023-06-04T05:04:01;102277.44;;;13.36;59.63
80186;BME280;69904;52.122;5.422;2023-06-04T05:06:30;102281.22;;;13.35;59.23
80186;BME280;69904;52.122;5.422;2023-06-04T05:08:56;102285.25;;;13.39;59.66
80186;BME280;69904;52.122;5.422;2023-06-04T05:11:23;102289.81;;;13.38;59.66
80186;BME280;69904;52.122;5.422;2023-06-04T05:13:49;102293.69;;;13.44;59.85
80186;BME280;69904;52.122;5.422;2023-06-04T05:16:15;102291.81;;;13.44;59.73
80186;BME280;69904;52.122;5.422;2023-06-04T05:18:42;102290.59;;;13.47;59.85
80186;BME280;69904;52.122;5.422;2023-06-04T05:21:11;102290.25;;;13.50;60.10
80186;BME280;69904;52.122;5.422;2023-06-04T05:23:38;102282.56;;;13.54;59.78
80186;BME280;69904;52.122;5.422;2023-06-04T05:26:05;102288.47;;;13.57;59.32
80186;BME280;69904;52.122;5.422;2023-06-04T05:28:32;102288.28;;;13.59;60.20
80186;BME280;69904;52.122;5.422;2023-06-04T05:31:01;102286.91;;;13.63;59.98
80186;BME280;69904;52.122;5.422;2023-06-04T05:33:29;102287.56;;;13.65;60.10
80186;BME280;69904;52.122;5.422;2023-06-04T05:35:56;102286.16;;;13.69;60.20
80186;BME280;69904;52.122;5.422;2023-06-04T05:38:26;102287.69;;;13.71;60.33
80186;BME280;69904;52.122;5.422;2023-06-04T05:40:54;102285.44;;;13.75;60.10
80186;BME280;69904;52.122;5.422;2023-06-04T05:43:21;102289.00;;;13.75;60.31
80186;BME280;69904;52.122;5.422;2023-06-04T05:45:48;102289.28;;;13.80;59.95
80186;BME280;69904;52.122;5.422;2023-06-04T05:48:15;102285.84;;;13.86;59.87
80186;BME280;69904;52.122;5.422;2023-06-04T05:50:42;102285.69;;;13.88;59.91
80186;BME280;69904;52.122;5.422;2023-06-04T05:53:08;102284.75;;;13.96;60.15
80186;BME280;69904;52.122;5.422;2023-06-04T05:55:35;102295.88;;;14.01;60.39
80186;BME280;69904;52.122;5.422;2023-06-04T05:58:04;102283.94;;;14.10;60.45
80186;BME280;69904;52.122;5.422;2023-06-04T06:00:30;102293.56;;;14.12;60.54
80186;BME280;69904;52.122;5.422;2023-06-04T06:02:57;102293.09;;;14.09;60.12
80186;BME280;69904;52.122;5.422;2023-06-04T06:05:24;102295.09;;;14.15;60.18
80186;BME280;69904;52.122;5.422;2023-06-04T06:07:50;102292.66;;;14.20;59.80
80186;BME280;69904;52.122;5.422;2023-06-04T06:10:17;102292.25;;;14.23;59.86
80186;BME280;69904;52.122;5.422;2023-06-04T06:12:44;102297.81;;;14.29;59.58
80186;BME280;69904;52.122;5.422;2023-06-04T06:15:11;102297.41;;;14.32;59.91
80186;BME280;69904;52.122;5.422;2023-06-04T06:17:39;102295.81;;;14.23;59.52
80186;BME280;69904;52.122;5.422;2023-06-04T06:20:06;102299.50;;;14.30;59.19
80186;BME280;69904;52.122;5.422;2023-06-04T06:22:34;102302.31;;;14.37;58.95
80186;BME280;69904;52.122;5.422;2023-06-04T06:25:02;102303.44;;;14.43;59.11
80186;BME280;69904;52.122;5.422;2023-06-04T06:27:29;102294.09;;;14.45;58.04
80186;BME280;69904;52.122;5.422;2023-06-04T06:29:56;102302.06;;;14.47;58.17
80186;BME280;69904;52.122;5.422;2023-06-04T06:32:23;102303.72;;;14.48;58.03
80186;BME280;69904;52.122;5.422;2023-06-04T06:34:49;102293.97;;;14.53;57.86
80186;BME280;69904;52.122;5.422;2023-06-04T06:37:16;102292.94;;;14.54;57.68
80186;BME280;69904;52.122;5.422;2023-06-04T06:39:42;102294.25;;;14.58;57.42
80186;BME280;69904;52.122;5.422;2023-06-04T06:42:09;102289.94;;;14.64;57.11
80186;BME280;69904;52.122;5.422;2023-06-04T06:44:35;102291.91;;;14.70;57.28
80186;BME280;69904;52.122;5.422;2023-06-04T06:47:02;102303.84;;;14.69;56.68
80186;BME280;69904;52.122;5.422;2023-06-04T06:49:28;102295.28;;;14.72;57.29
80186;BME280;69904;52.122;5.422;2023-06-04T06:51:55;102300.81;;;14.79;56.52
80186;BME280;69904;52.122;5.422;2023-06-04T06:54:21;102298.66;;;14.89;56.75
80186;BME280;69904;52.122;5.422;2023-06-04T06:56:48;102303.13;;;14.96;56.60
80186;BME280;69904;52.122;5.422;2023-06-04T06:59:17;102301.31;;;15.03;56.68
80186;BME280;69904;52.122;5.422;2023-06-04T07:01:43;102304.97;;;15.10;56.29
80186;BME280;69904;52.122;5.422;2023-06-04T07:04:10;102302.34;;;15.17;56.03
80186;BME280;69904;52.122;5.422;2023-06-04T07:06:36;102314.69;;;15.20;56.03
80186;BME280;69904;52.122;5.422;2023-06-04T07:09:03;102303.81;;;15.20;55.96
80186;BME280;69904;52.122;5.422;2023-06-04T07:11:32;102310.34;;;15.25;56.24
80186;BME280;69904;52.122;5.422;2023-06-04T07:13:58;102306.47;;;15.34;55.92
80186;BME280;69904;52.122;5.422;2023-06-04T07:16:25;102321.41;;;15.38;56.17
80186;BME280;69904;52.122;5.422;2023-06-04T07:18:51;102310.97;;;15.42;55.55
80186;BME280;69904;52.122;5.422;2023-06-04T07:21:18;102314.78;;;15.47;55.78
80186;BME280;69904;52.122;5.422;2023-06-04T07:23:46;102318.97;;;15.50;55.96
80186;BME280;69904;52.122;5.422;2023-06-04T07:26:16;102326.41;;;15.56;55.22
80186;BME280;69904;52.122;5.422;2023-06-04T07:28:44;102327.06;;;15.58;54.91
80186;BME280;69904;52.122;5.422;2023-06-04T07:31:15;102330.72;;;15.65;54.55
80186;BME280;69904;52.122;5.422;2023-06-04T07:33:42;102326.16;;;15.72;54.32
80186;BME280;69904;52.122;5.422;2023-06-04T07:36:12;102324.78;;;15.83;54.19
80186;BME280;69904;52.122;5.422;2023-06-04T07:38:38;102316.69;;;15.89;54.05
80186;BME280;69904;52.122;5.422;2023-06-04T07:41:05;102327.22;;;15.99;54.07
80186;BME280;69904;52.122;5.422;2023-06-04T07:43:36;102319.97;;;16.06;53.62
80186;BME280;69904;52.122;5.422;2023-06-04T07:46:04;102329.03;;;16.13;54.06
80186;BME280;69904;52.122;5.422;2023-06-04T07:48:31;102333.66;;;16.19;52.89
80186;BME280;69904;52.122;5.422;2023-06-04T07:50:57;102322.56;;;16.21;53.31
80186;BME280;69904;52.122;5.422;2023-06-04T07:53:24;102322.19;;;16.24;52.60
80186;BME280;69904;52.122;5.422;2023-06-04T07:55:52;102329.31;;;16.25;52.26
80186;BME280;69904;52.122;5.422;2023-06-04T07:58:19;102317.81;;;16.29;51.99
80186;BME280;69904;52.122;5.422;2023-06-04T08:00:45;102320.81;;;16.34;51.98
80186;BME280;69904;52.122;5.422;2023-06-04T08:03:12;102321.84;;;16.40;51.67
80186;BME280;69904;52.122;5.422;2023-06-04T08:05:38;102316.91;;;16.50;51.85
80186;BME280;69904;52.122;5.422;2023-06-04T08:08:05;102320.34;;;16.59;50.99
80186;BME280;69904;52.122;5.422;2023-06-04T08:10:32;102314.28;;;16.63;50.58
80186;BME280;69904;52.122;5.422;2023-06-04T08:12:59;102325.47;;;16.75;50.53
80186;BME280;69904;52.122;5.422;2023-06-04T08:15:25;102315.88;;;16.86;50.39
80186;BME280;69904;52.122;5.422;2023-06-04T08:17:52;102315.66;;;16.94;50.87
80186;BME280;69904;52.122;5.422;2023-06-04T08:20:18;102315.50;;;17.02;50.55
80186;BME280;69904;52.122;5.422;2023-06-04T08:22:45;102315.31;;;17.10;50.37
80186;BME280;69904;52.122;5.422;2023-06-04T08:25:11;102319.75;;;17.17;49.47
80186;BME280;69904;52.122;5.422;2023-06-04T08:27:38;102315.38;;;17.23;49.18
80186;BME280;69904;52.122;5.422;2023-06-04T08:30:04;102316.66;;;17.34;50.03
80186;BME280;69904;52.122;5.422;2023-06-04T08:32:31;102314.56;;;17.36;49.23
80186;BME280;69904;52.122;5.422;2023-06-04T08:34:58;102324.88;;;17.40;49.50
80186;BME280;69904;52.122;5.422;2023-06-04T08:37:24;102322.78;;;17.49;49.75
80186;BME280;69904;52.122;5.422;2023-06-04T08:39:51;102323.44;;;17.57;50.30
80186;BME280;69904;52.122;5.422;2023-06-04T08:42:22;102320.97;;;17.62;49.62
80186;BME280;69904;52.122;5.422;2023-06-04T08:44:53;102324.50;;;17.70;49.73
80186;BME280;69904;52.122;5.422;2023-06-04T08:47:22;102332.72;;;17.70;48.92
80186;BME280;69904;52.122;5.422;2023-06-04T08:49:50;102322.44;;;17.78;49.12
80186;BME280;69904;52.122;5.422;2023-06-04T08:52:17;102322.84;;;17.82;48.25
80186;BME280;69904;52.122;5.422;2023-06-04T08:54:51;102328.53;;;17.87;48.39
80186;BME280;69904;52.122;5.422;2023-06-04T08:57:18;102337.34;;;17.95;48.39
80186;BME280;69904;52.122;5.422;2023-06-04T08:59:46;102333.97;;;18.06;48.01
80186;BME280;69904;52.122;5.422;2023-06-04T09:02:14;102327.69;;;18.06;47.60
80186;BME280;69904;52.122;5.422;2023-06-04T09:04:42;102333.16;;;18.13;47.38
80186;BME280;69904;52.122;5.422;2023-06-04T09:07:12;102335.44;;;18.22;46.38
80186;BME280;69904;52.122;5.422;2023-06-04T09:09:40;102336.94;;;18.31;47.37
80186;BME280;69904;52.122;5.422;2023-06-04T09:12:11;102332.28;;;18.38;47.28
80186;BME280;69904;52.122;5.422;2023-06-04T09:14:42;102325.94;;;18.44;47.19
80186;BME280;69904;52.122;5.422;2023-06-04T09:17:08;102329.75;;;18.57;47.67
80186;BME280;69904;52.122;5.422;2023-06-04T09:19:34;102332.88;;;18.60;47.07
80186;BME280;69904;52.122;5.422;2023-06-04T09:22:01;102328.25;;;18.67;46.43
80186;BME280;69904;52.122;5.422;2023-06-04T09:24:42;102326.94;;;18.76;45.45
80186;BME280;69904;52.122;5.422;2023-06-04T09:27:10;102326.72;;;18.84;45.67
80186;BME280;69904;52.122;5.422;2023-06-04T09:29:38;102322.03;;;18.98;45.77
80186;BME280;69904;52.122;5.422;2023-06-04T09:32:05;102326.63;;;19.11;45.97
80186;BME280;69904;52.122;5.422;2023-06-04T09:34:31;102321.50;;;19.21;45.85
80186;BME280;69904;52.122;5.422;2023-06-04T09:36:59;102320.63;;;19.27;43.66
80186;BME280;69904;52.122;5.422;2023-06-04T09:39:26;102325.00;;;19.34;43.37
80186;BME280;69904;52.122;5.422;2023-06-04T09:42:00;102322.00;;;19.43;43.57
80186;BME280;69904;52.122;5.422;2023-06-04T09:44:29;102320.13;;;19.50;42.63
80186;BME280;69904;52.122;5.422;2023-06-04T09:46:56;102330.16;;;19.56;43.28
80186;BME280;69904;52.122;5.422;2023-06-04T09:49:23;102318.38;;;19.55;43.33
80186;BME280;69904;52.122;5.422;2023-06-04T09:51:50;102318.97;;;19.64;43.11
80186;BME280;69904;52.122;5.422;2023-06-04T09:54:17;102317.03;;;19.71;43.10
80186;BME280;69904;52.122;5.422;2023-06-04T09:56:43;102317.97;;;19.83;43.31
80186;BME280;69904;52.122;5.422;2023-06-04T09:59:10;102313.47;;;19.89;43.12
80186;BME280;69904;52.122;5.422;2023-06-04T10:01:40;102316.56;;;19.99;44.07
80186;BME280;69904;52.122;5.422;2023-06-04T10:04:13;102315.81;;;20.10;43.53
80186;BME280;69904;52.122;5.422;2023-06-04T10:06:40;102325.75;;;20.11;42.36
80186;BME280;69904;52.122;5.422;2023-06-04T10:09:08;102321.25;;;20.16;42.89
80186;BME280;69904;52.122;5.422;2023-06-04T10:11:40;102320.97;;;20.25;41.71
80186;BME280;69904;52.122;5.422;2023-06-04T10:14:14;102318.97;;;20.38;42.13
80186;BME280;69904;52.122;5.422;2023-06-04T10:16:46;102311.75;;;20.44;41.41
80186;BME280;69904;52.122;5.422;2023-06-04T10:19:14;102314.47;;;20.44;41.49
80186;BME280;69904;52.122;5.422;2023-06-04T10:21:43;102326.75;;;20.59;40.97
80186;BME280;69904;52.122;5.422;2023-06-04T10:24:11;102324.16;;;20.65;40.68
80186;BME280;69904;52.122;5.422;2023-06-04T10:26:39;102318.00;;;20.69;39.90
80186;BME280;69904;52.122;5.422;2023-06-04T10:29:07;102324.25;;;20.76;41.06
80186;BME280;69904;52.122;5.422;2023-06-04T10:31:37;102312.59;;;20.81;39.74
80186;BME280;69904;52.122;5.422;2023-06-04T10:34:04;102317.91;;;20.94;40.85
80186;BME280;69904;52.122;5.422;2023-06-04T10:36:30;102317.25;;;21.10;39.70
80186;BME280;69904;52.122;5.422;2023-06-04T10:38:57;102319.19;;;21.10;38.84
80186;BME280;69904;52.122;5.422;2023-06-04T10:41:24;102311.13;;;21.15;39.35
80186;BME280;69904;52.122;5.422;2023-06-04T10:44:00;102311.97;;;21.15;38.91
80186;BME280;69904;52.122;5.422;2023-06-04T10:46:38;102316.28;;;21.23;39.68
80186;BME280;69904;52.122;5.422;2023-06-04T10:49:11;102316.69;;;21.38;38.39
80186;BME280;69904;52.122;5.422;2023-06-04T10:51:38;102318.41;;;21.51;38.28
80186;BME280;69904;52.122;5.422;2023-06-04T10:54:05;102309.59;;;21.60;38.36
80186;BME280;69904;52.122;5.422;2023-06-04T10:56:34;102316.31;;;21.64;37.79
80186;BME280;69904;52.122;5.422;2023-06-04T10:59:13;102315.38;;;21.82;37.96
80186;BME280;69904;52.122;5.422;2023-06-04T11:01:40;102321.00;;;21.87;37.19
80186;BME280;69904;52.122;5.422;2023-06-04T11:04:24;102315.22;;;21.95;37.97
80186;BME280;69904;52.122;5.422;2023-06-04T11:07:04;102310.41;;;22.02;37.11
80186;BME280;69904;52.122;5.422;2023-06-04T11:09:57;102319.84;;;22.06;37.09
80186;BME280;69904;52.122;5.422;2023-06-04T11:12:22;102312.59;;;22.00;36.91
80186;BME280;69904;52.122;5.422;2023-06-04T11:14:56;102315.59;;;22.10;37.11
80186;BME280;69904;52.122;5.422;2023-06-04T11:17:23;102305.31;;;22.06;36.56
80186;BME280;69904;52.122;5.422;2023-06-04T11:19:50;102304.31;;;22.12;36.91
80186;BME280;69904;52.122;5.422;2023-06-04T11:22:16;102305.41;;;22.22;37.38
80186;BME280;69904;52.122;5.422;2023-06-04T11:24:44;102303.03;;;22.26;36.25
80186;BME280;69904;52.122;5.422;2023-06-04T11:27:10;102298.72;;;22.30;36.34
80186;BME280;69904;52.122;5.422;2023-06-04T11:29:53;102304.09;;;22.37;36.60
80186;BME280;69904;52.122;5.422;2023-06-04T11:32:23;102293.31;;;22.35;36.04
80186;BME280;69904;52.122;5.422;2023-06-04T11:34:50;102299.53;;;22.42;37.40
80186;BME280;69904;52.122;5.422;2023-06-04T11:37:17;102291.75;;;22.51;37.06
80186;BME280;69904;52.122;5.422;2023-06-04T11:39:43;102299.16;;;22.50;36.48
80186;BME280;69904;52.122;5.422;2023-06-04T11:42:10;102294.38;;;22.46;36.71
80186;BME280;69904;52.122;5.422;2023-06-04T11:44:38;102294.38;;;22.46;35.62
80186;BME280;69904;52.122;5.422;2023-06-04T11:47:06;102294.03;;;22.42;35.47
80186;BME280;69904;52.122;5.422;2023-06-04T11:49:34;102283.78;;;22.38;35.39
80186;BME280;69904;52.122;5.422;2023-06-04T11:52:02;102290.09;;;22.38;35.78
80186;BME280;69904;52.122;5.422;2023-06-04T11:54:28;102279.34;;;22.37;35.87
80186;BME280;69904;52.122;5.422;2023-06-04T11:56:55;102287.22;;;22.45;36.60
80186;BME280;69904;52.122;5.422;2023-06-04T11:59:22;102276.69;;;22.42;35.99
80186;BME280;69904;52.122;5.422;2023-06-04T12:01:48;102278.84;;;22.40;35.61
80186;BME280;69904;52.122;5.422;2023-06-04T12:04:18;102286.13;;;22.46;35.14
80186;BME280;69904;52.122;5.422;2023-06-04T12:06:55;102273.59;;;22.38;34.76
80186;BME280;69904;52.122;5.422;2023-06-04T12:09:33;102271.41;;;22.52;35.41
80186;BME280;69904;52.122;5.422;2023-06-04T12:12:09;102267.59;;;22.53;35.67
80186;BME280;69904;52.122;5.422;2023-06-04T12:14:35;102270.78;;;22.61;35.63
80186;BME280;69904;52.122;5.422;2023-06-04T12:17:06;102274.38;;;22.62;35.15
80186;BME280;69904;52.122;5.422;2023-06-04T12:19:46;102264.34;;;22.56;35.71
80186;BME280;69904;52.122;5.422;2023-06-04T12:22:12;102276.31;;;22.73;35.08
80186;BME280;69904;52.122;5.422;2023-06-04T12:24:59;102268.00;;;22.85;35.74
80186;BME280;69904;52.122;5.422;2023-06-04T12:27:29;102270.03;;;22.89;36.12
80186;BME280;69904;52.122;5.422;2023-06-04T12:32:26;102267.13;;;22.96;35.13
80186;BME280;69904;52.122;5.422;2023-06-04T12:34:53;102269.63;;;22.97;34.20
80186;BME280;69904;52.122;5.422;2023-06-04T12:37:21;102265.94;;;22.92;35.07
80186;BME280;69904;52.122;5.422;2023-06-04T12:39:48;102268.13;;;22.90;34.79
80186;BME280;69904;52.122;5.422;2023-06-04T12:42:15;102266.63;;;22.99;35.26
80186;BME280;69904;52.122;5.422;2023-06-04T12:44:41;102269.00;;;23.07;33.98
80186;BME280;69904;52.122;5.422;2023-06-04T12:47:08;102263.75;;;23.05;34.27
80186;BME280;69904;52.122;5.422;2023-06-04T12:49:35;102257.28;;;23.00;34.28
80186;BME280;69904;52.122;5.422;2023-06-04T12:52:01;102260.75;;;23.07;35.11
80186;BME280;69904;52.122;5.422;2023-06-04T12:54:28;102263.59;;;23.12;35.01
80186;BME280;69904;52.122;5.422;2023-06-04T12:56:55;102265.59;;;23.17;35.19
80186;BME280;69904;52.122;5.422;2023-06-04T12:59:26;102256.09;;;23.24;35.00
80186;BME280;69904;52.122;5.422;2023-06-04T13:01:54;102261.44;;;23.31;35.06
80186;BME280;69904;52.122;5.422;2023-06-04T13:04:20;102257.09;;;23.35;34.99
80186;BME280;69904;52.122;5.422;2023-06-04T13:06:47;102263.66;;;23.45;34.03